This is the latest recevied weather packets stored in our database for station/object K8FJG-13. If no packets are shown the sender has not sent any weather packets the latest 1 day(s).
| Time | Temp. | Humidity | Pressure | Rain* | Wind** | Luminosity | Snow |
|---|---|---|---|---|---|---|---|
| 1778087165 | 10.56° C | 72% | 967.6 hPa | - | - | - | - |
| 1778084149 | 10° C | 79% | 967.3 hPa | - | - | - | - |
| 1778083546 | 10.56° C | 77% | 967.2 hPa | - | - | - | - |
| 1778079324 | 8.89° C | 84% | 966 hPa | - | - | - | - |
| 1778077514 | 8.33° C | 86% | 965.6 hPa | - | - | - | - |
| 1778076911 | 8.33° C | 89% | 965.5 hPa | - | - | - | - |
| 1778074498 | 7.22° C | 96% | 965.3 hPa | - | - | - | - |
| 1778073895 | 7.22° C | 96% | 965.1 hPa | - | - | - | - |
| 1778073292 | 7.22° C | 96% | 964.9 hPa | - | - | - | - |
| 1778070276 | 6.67° C | 97% | 964.8 hPa | - | - | - | - |
| 1778069673 | 6.67° C | 97% | 964.5 hPa | - | - | - | - |
| 1778068467 | 6.67° C | 97% | 964.6 hPa | - | - | - | - |
| 1778067864 | 6.67° C | 97% | 964.2 hPa | - | - | - | - |
| 1778064245 | 6.67° C | 97% | 963.5 hPa | - | - | - | - |
| 1778063642 | 6.67° C | 97% | 963.4 hPa | - | - | - | - |
| 1778060023 | 7.22° C | 97% | 963.7 hPa | - | - | - | - |
| 1778059420 | 7.22° C | 97% | 963.5 hPa | - | - | - | - |
| 1778058817 | 6.67° C | 97% | 963.3 hPa | - | - | - | - |
| 1778058214 | 6.67° C | 97% | 963.1 hPa | - | - | - | - |
| 1778057611 | 6.67° C | 97% | 962.7 hPa | - | - | - | - |
| 1778057007 | 6.67° C | 97% | 963 hPa | - | - | - | - |
| 1778054595 | 6.67° C | 97% | 963.4 hPa | - | - | - | - |
| 1778053389 | 6.67° C | 96% | 963.1 hPa | - | - | - | - |
| 1778052786 | 6.67° C | 96% | 963 hPa | - | - | - | - |
| 1778052183 | 6.67° C | 96% | 963.2 hPa | - | - | - | - |
* Rain since midnight (hover to see other rain measurements)
** Current wind speed in m/s (hover to see current wind gust speed)